Time,TemperatureF,DewpointF,PressureIn,WindDirection,WindDirectionDegrees,WindSpeedMPH,WindSpeedGustMPH,Humidity,HourlyPrecipIn,Conditions,Clouds,dailyrainin,SoftwareType,DateUTC
2013-05-23 00:02:00,45.5,37.4,0.00,WSW,252,0.6,4.6,73,0.00,,,0.00,WUHU216CR1000,2013-05-23 07:02:00,
2013-05-23 00:07:00,45.5,37.4,0.00,WSW,252,0.6,4.6,73,0.00,,,0.00,WUHU216CR1000,2013-05-23 07:07:00,
2013-05-23 00:12:00,45.5,37.4,0.00,WSW,252,0.6,4.6,73,0.00,,,0.00,WUHU216CR1000,2013-05-23 07:12:00,
2013-05-23 00:17:00,44.0,36.5,0.00,SW,229,0.8,4.6,75,0.00,,,0.00,WUHU216CR1000,2013-05-23 07:17:00,
2013-05-23 00:22:00,44.0,36.5,0.00,SW,229,0.8,2.8,75,0.00,,,0.00,WUHU216CR1000,2013-05-23 07:22:00,
2013-05-23 00:27:00,44.0,36.5,0.00,SW,229,0.8,2.8,75,0.00,,,0.00,WUHU216CR1000,2013-05-23 07:27:00,
2013-05-23 00:32:00,43.5,37.1,0.00,SW,229,0.9,4.6,78,0.00,,,0.00,WUHU216CR1000,2013-05-23 07:32:00,
2013-05-23 00:37:00,43.5,37.1,0.00,SW,229,0.9,4.6,78,0.00,,,0.00,WUHU216CR1000,2013-05-23 07:37:00,
2013-05-23 00:42:00,43.5,37.1,0.00,SW,229,0.9,4.6,78,0.00,,,0.00,WUHU216CR1000,2013-05-23 07:42:00,
2013-05-23 00:47:00,42.9,37.0,0.00,WSW,252,1.1,4.6,79,0.00,,,0.00,WUHU216CR1000,2013-05-23 07:47:00,
2013-05-23 00:52:00,42.9,37.0,0.00,WSW,252,1.1,4.6,79,0.00,,,0.00,WUHU216CR1000,2013-05-23 07:52:00,
2013-05-23 00:57:00,42.9,37.0,0.00,WSW,252,1.1,4.6,79,0.00,,,0.00,WUHU216CR1000,2013-05-23 07:57:00,
2013-05-23 01:02:00,43.0,37.1,0.00,South,179,1.0,4.6,79,0.00,,,0.00,WUHU216CR1000,2013-05-23 08:02:00,
2013-05-23 01:07:00,43.0,37.1,0.00,South,179,1.0,4.6,79,0.00,,,0.00,WUHU216CR1000,2013-05-23 08:07:00,
2013-05-23 01:12:00,43.0,37.1,0.00,South,179,1.0,4.6,79,0.00,,,0.00,WUHU216CR1000,2013-05-23 08:12:00,
2013-05-23 01:17:00,41.9,36.0,0.00,WNW,288,0.3,4.6,79,0.00,,,0.00,WUHU216CR1000,2013-05-23 08:17:00,
2013-05-23 01:22:00,41.9,36.0,0.00,WNW,288,0.3,2.8,79,0.00,,,0.00,WUHU216CR1000,2013-05-23 08:22:00,
2013-05-23 01:27:00,41.9,36.0,0.00,WNW,288,0.3,2.8,79,0.00,,,0.00,WUHU216CR1000,2013-05-23 08:27:00,
2013-05-23 01:32:00,41.5,36.5,0.00,WSW,244,0.9,2.8,82,0.00,,,0.00,WUHU216CR1000,2013-05-23 08:32:00,
2013-05-23 01:37:00,41.5,36.5,0.00,WSW,244,0.9,2.8,82,0.00,,,0.00,WUHU216CR1000,2013-05-23 08:37:00,
2013-05-23 01:42:00,41.5,36.5,0.00,WSW,244,0.9,2.8,82,0.00,,,0.00,WUHU216CR1000,2013-05-23 08:42:00,
2013-05-23 01:47:00,41.5,36.5,0.00,NW,309,1.2,4.6,82,0.00,,,0.00,WUHU216CR1000,2013-05-23 08:47:00,
2013-05-23 01:52:00,41.5,36.5,0.00,NW,309,1.2,4.6,82,0.00,,,0.00,WUHU216CR1000,2013-05-23 08:52:00,
2013-05-23 01:57:00,41.5,36.5,0.00,NW,309,1.2,4.6,82,0.00,,,0.00,WUHU216CR1000,2013-05-23 08:57:00,
2013-05-23 02:02:00,41.2,36.3,0.00,West,266,1.7,4.6,82,0.00,,,0.00,WUHU216CR1000,2013-05-23 09:02:00,
2013-05-23 02:07:00,41.2,36.3,0.00,West,266,1.7,4.6,82,0.00,,,0.00,WUHU216CR1000,2013-05-23 09:07:00,
2013-05-23 02:12:00,41.2,36.3,0.00,West,266,1.7,4.6,82,0.00,,,0.00,WUHU216CR1000,2013-05-23 09:12:00,
2013-05-23 02:17:00,41.8,37.1,0.00,WSW,257,1.3,4.6,83,0.00,,,0.00,WUHU216CR1000,2013-05-23 09:17:00,
2013-05-23 02:22:00,41.8,37.1,0.00,WSW,257,1.3,2.8,83,0.00,,,0.00,WUHU216CR1000,2013-05-23 09:22:00,
2013-05-23 02:27:00,41.8,37.1,0.00,WSW,257,1.3,2.8,83,0.00,,,0.00,WUHU216CR1000,2013-05-23 09:27:00,
2013-05-23 02:32:00,42.0,37.3,0.00,West,269,2.1,4.6,83,0.00,,,0.00,WUHU216CR1000,2013-05-23 09:32:00,
2013-05-23 02:37:00,42.0,37.3,0.00,West,269,2.1,4.6,83,0.00,,,0.00,WUHU216CR1000,2013-05-23 09:37:00,
2013-05-23 02:42:00,42.0,37.3,0.00,West,269,2.1,4.6,83,0.00,,,0.00,WUHU216CR1000,2013-05-23 09:42:00,
2013-05-23 02:47:00,42.4,37.4,0.00,WNW,298,1.6,4.6,82,0.00,,,0.00,WUHU216CR1000,2013-05-23 09:47:00,
2013-05-23 02:52:00,42.4,37.4,0.00,WNW,298,1.6,4.6,82,0.00,,,0.00,WUHU216CR1000,2013-05-23 09:52:00,
2013-05-23 02:57:00,42.4,37.4,0.00,WNW,298,1.6,4.6,82,0.00,,,0.00,WUHU216CR1000,2013-05-23 09:57:00,
2013-05-23 03:02:00,42.0,37.2,0.00,WSW,249,2.0,4.6,83,0.00,,,0.00,WUHU216CR1000,2013-05-23 10:02:00,
2013-05-23 03:07:00,42.0,37.2,0.00,WSW,249,2.0,4.6,83,0.00,,,0.00,WUHU216CR1000,2013-05-23 10:07:00,
2013-05-23 03:12:00,42.0,37.2,0.00,WSW,249,2.0,4.6,83,0.00,,,0.00,WUHU216CR1000,2013-05-23 10:12:00,
2013-05-23 03:17:00,42.2,37.5,0.00,WNW,300,0.9,4.6,83,0.00,,,0.00,WUHU216CR1000,2013-05-23 10:17:00,
2013-05-23 03:22:00,42.2,37.5,0.00,WNW,300,0.9,4.6,83,0.00,,,0.00,WUHU216CR1000,2013-05-23 10:22:00,
2013-05-23 03:27:00,42.2,37.5,0.00,WNW,300,0.9,4.6,83,0.00,,,0.00,WUHU216CR1000,2013-05-23 10:27:00,
2013-05-23 03:32:00,41.2,36.7,0.00,WNW,293,1.7,4.6,84,0.00,,,0.00,WUHU216CR1000,2013-05-23 10:32:00,
2013-05-23 03:37:00,41.2,36.7,0.00,WNW,293,1.7,4.6,84,0.00,,,0.00,WUHU216CR1000,2013-05-23 10:37:00,
2013-05-23 03:42:00,41.2,36.7,0.00,WNW,293,1.7,4.6,84,0.00,,,0.00,WUHU216CR1000,2013-05-23 10:42:00,
2013-05-23 03:47:00,40.6,36.5,0.00,West,275,1.7,4.6,85,0.00,,,0.00,WUHU216CR1000,2013-05-23 10:47:00,
2013-05-23 03:52:00,40.6,36.5,0.00,West,275,1.7,4.6,85,0.00,,,0.00,WUHU216CR1000,2013-05-23 10:52:00,
2013-05-23 03:57:00,40.6,36.5,0.00,West,275,1.7,4.6,85,0.00,,,0.00,WUHU216CR1000,2013-05-23 10:57:00,
2013-05-23 04:02:00,40.1,36.2,0.00,NW,325,0.9,4.6,86,0.00,,,0.00,WUHU216CR1000,2013-05-23 11:02:00,
2013-05-23 04:07:00,40.1,36.2,0.00,NW,325,0.9,4.6,86,0.00,,,0.00,WUHU216CR1000,2013-05-23 11:07:00,
2013-05-23 04:12:00,40.1,36.2,0.00,NW,325,0.9,4.6,86,0.00,,,0.00,WUHU216CR1000,2013-05-23 11:12:00,
2013-05-23 04:17:00,40.4,36.6,0.00,NW,315,0.7,4.6,86,0.00,,,0.00,WUHU216CR1000,2013-05-23 11:17:00,
2013-05-23 04:22:00,40.4,36.6,0.00,NW,315,0.7,4.6,86,0.00,,,0.00,WUHU216CR1000,2013-05-23 11:22:00,
2013-05-23 04:27:00,40.4,36.6,0.00,NW,315,0.7,4.6,86,0.00,,,0.00,WUHU216CR1000,2013-05-23 11:27:00,
2013-05-23 04:32:00,39.3,35.5,0.00,WSW,255,0.9,4.6,86,0.00,,,0.00,WUHU216CR1000,2013-05-23 11:32:00,
2013-05-23 04:37:00,39.3,35.5,0.00,WSW,255,0.9,4.6,86,0.00,,,0.00,WUHU216CR1000,2013-05-23 11:37:00,
2013-05-23 04:42:00,39.3,35.5,0.00,WSW,255,0.9,4.6,86,0.00,,,0.00,WUHU216CR1000,2013-05-23 11:42:00,
2013-05-23 04:47:00,39.1,35.8,0.00,WNW,289,1.3,4.6,88,0.00,,,0.00,WUHU216CR1000,2013-05-23 11:47:00,
2013-05-23 04:52:00,39.1,35.8,0.00,WNW,289,1.3,4.6,88,0.00,,,0.00,WUHU216CR1000,2013-05-23 11:52:00,
2013-05-23 04:57:00,39.1,35.8,0.00,WNW,289,1.3,4.6,88,0.00,,,0.00,WUHU216CR1000,2013-05-23 11:57:00,
2013-05-23 05:02:00,39.2,36.2,0.00,WNW,297,1.0,4.6,89,0.00,,,0.00,WUHU216CR1000,2013-05-23 12:02:00,
2013-05-23 05:07:00,39.2,36.2,0.00,WNW,297,1.0,2.8,89,0.00,,,0.00,WUHU216CR1000,2013-05-23 12:07:00,
2013-05-23 05:12:00,39.2,36.2,0.00,WNW,297,1.0,2.8,89,0.00,,,0.00,WUHU216CR1000,2013-05-23 12:12:00,
2013-05-23 05:17:00,38.9,35.9,0.00,WNW,284,1.0,4.6,89,0.00,,,0.00,WUHU216CR1000,2013-05-23 12:17:00,
2013-05-23 05:22:00,38.9,35.9,0.00,WNW,284,1.0,4.6,89,0.00,,,0.00,WUHU216CR1000,2013-05-23 12:22:00,
2013-05-23 05:27:00,38.9,35.9,0.00,WNW,284,1.0,4.6,89,0.00,,,0.00,WUHU216CR1000,2013-05-23 12:27:00,
2013-05-23 05:32:00,39.3,36.4,0.00,West,278,1.4,6.4,89,0.00,,,0.00,WUHU216CR1000,2013-05-23 12:32:00,
2013-05-23 05:37:00,39.3,36.4,0.00,West,278,1.4,6.4,89,0.00,,,0.00,WUHU216CR1000,2013-05-23 12:37:00,
2013-05-23 05:42:00,39.3,36.4,0.00,West,278,1.4,6.4,89,0.00,,,0.00,WUHU216CR1000,2013-05-23 12:42:00,
2013-05-23 05:47:00,39.8,36.4,0.00,West,278,1.7,6.4,87,0.00,,,0.00,WUHU216CR1000,2013-05-23 12:47:00,
2013-05-23 05:52:00,39.8,36.4,0.00,West,278,1.7,4.6,87,0.00,,,0.00,WUHU216CR1000,2013-05-23 12:52:00,
2013-05-23 05:57:00,39.8,36.4,0.00,West,278,1.7,4.6,87,0.00,,,0.00,WUHU216CR1000,2013-05-23 12:57:00,
2013-05-23 06:02:00,39.9,36.3,0.00,West,281,1.6,4.6,87,0.00,,,0.00,WUHU216CR1000,2013-05-23 13:02:00,
2013-05-23 06:07:00,39.9,36.3,0.00,West,281,1.6,4.6,87,0.00,,,0.00,WUHU216CR1000,2013-05-23 13:07:00,
2013-05-23 06:12:00,39.9,36.3,0.00,West,281,1.6,4.6,87,0.00,,,0.00,WUHU216CR1000,2013-05-23 13:12:00,
2013-05-23 06:17:00,39.1,35.6,0.00,North,351,0.4,4.6,87,0.00,,,0.00,WUHU216CR1000,2013-05-23 13:17:00,
2013-05-23 06:22:00,39.1,35.6,0.00,North,351,0.4,4.6,87,0.00,,,0.00,WUHU216CR1000,2013-05-23 13:22:00,
2013-05-23 06:27:00,39.1,35.6,0.00,North,351,0.4,4.6,87,0.00,,,0.00,WUHU216CR1000,2013-05-23 13:27:00,
2013-05-23 06:32:00,39.5,36.5,0.00,WSW,255,0.4,2.8,89,0.00,,,0.00,WUHU216CR1000,2013-05-23 13:32:00,
2013-05-23 06:37:00,39.5,36.5,0.00,WSW,255,0.4,2.8,89,0.00,,,0.00,WUHU216CR1000,2013-05-23 13:37:00,
2013-05-23 06:42:00,39.5,36.5,0.00,WSW,255,0.4,2.8,89,0.00,,,0.00,WUHU216CR1000,2013-05-23 13:42:00,
2013-05-23 06:47:00,41.9,38.0,0.00,WSW,237,1.0,4.6,86,0.00,,,0.00,WUHU216CR1000,2013-05-23 13:47:00,
2013-05-23 06:52:00,41.9,38.0,0.00,WSW,237,1.0,4.6,86,0.00,,,0.00,WUHU216CR1000,2013-05-23 13:52:00,
2013-05-23 06:57:00,41.9,38.0,0.00,WSW,237,1.0,4.6,86,0.00,,,0.00,WUHU216CR1000,2013-05-23 13:57:00,
2013-05-23 07:02:00,44.9,39.1,0.00,North,0,0.0,4.6,80,0.00,,,0.00,WUHU216CR1000,2013-05-23 14:02:00,
2013-05-23 07:07:00,44.9,39.1,0.00,North,0,0.0,0.0,80,0.00,,,0.00,WUHU216CR1000,2013-05-23 14:07:00,
2013-05-23 07:12:00,44.9,39.1,0.00,North,0,0.0,0.0,80,0.00,,,0.00,WUHU216CR1000,2013-05-23 14:12:00,
2013-05-23 07:17:00,48.3,39.4,0.00,NW,320,0.0,2.8,71,0.00,,,0.00,WUHU216CR1000,2013-05-23 14:17:00,
2013-05-23 07:22:00,48.3,39.4,0.00,NW,320,0.0,2.8,71,0.00,,,0.00,WUHU216CR1000,2013-05-23 14:22:00,
2013-05-23 07:27:00,48.3,39.4,0.00,NW,320,0.0,2.8,71,0.00,,,0.00,WUHU216CR1000,2013-05-23 14:27:00,
2013-05-23 07:32:00,49.5,39.6,0.00,WSW,253,0.9,4.6,69,0.00,,,0.00,WUHU216CR1000,2013-05-23 14:32:00,
2013-05-23 07:37:00,49.5,39.6,0.00,WSW,253,0.9,4.6,69,0.00,,,0.00,WUHU216CR1000,2013-05-23 14:37:00,
2013-05-23 07:42:00,49.5,39.6,0.00,WSW,253,0.9,4.6,69,0.00,,,0.00,WUHU216CR1000,2013-05-23 14:42:00,
2013-05-23 07:47:00,51.5,39.7,0.00,North,11,0.8,4.6,64,0.00,,,0.00,WUHU216CR1000,2013-05-23 14:47:00,
2013-05-23 07:52:00,51.5,39.7,0.00,North,11,0.8,4.6,64,0.00,,,0.00,WUHU216CR1000,2013-05-23 14:52:00,
2013-05-23 07:57:00,51.5,39.7,0.00,North,11,0.8,4.6,64,0.00,,,0.00,WUHU216CR1000,2013-05-23 14:57:00,
2013-05-23 08:02:00,52.5,39.6,0.00,South,173,1.8,6.4,62,0.00,,,0.00,WUHU216CR1000,2013-05-23 15:02:00,
2013-05-23 08:07:00,52.5,39.6,0.00,South,173,1.8,6.4,62,0.00,,,0.00,WUHU216CR1000,2013-05-23 15:07:00,
2013-05-23 08:12:00,52.5,39.6,0.00,South,173,1.8,6.4,62,0.00,,,0.00,WUHU216CR1000,2013-05-23 15:12:00,
2013-05-23 08:17:00,53.4,39.3,0.00,NNW,341,3.1,8.2,59,0.00,,,0.00,WUHU216CR1000,2013-05-23 15:17:00,
2013-05-23 08:22:00,53.4,39.3,0.00,NNW,341,3.1,8.2,59,0.00,,,0.00,WUHU216CR1000,2013-05-23 15:22:00,
2013-05-23 08:27:00,53.4,39.3,0.00,NNW,341,3.1,8.2,59,0.00,,,0.00,WUHU216CR1000,2013-05-23 15:27:00,
2013-05-23 08:32:00,54.1,39.1,0.00,NW,315,4.0,11.7,57,0.00,,,0.00,WUHU216CR1000,2013-05-23 15:32:00,
2013-05-23 08:37:00,54.1,39.1,0.00,NW,315,4.0,11.7,57,0.00,,,0.00,WUHU216CR1000,2013-05-23 15:37:00,
2013-05-23 08:42:00,54.1,39.1,0.00,NW,315,4.0,11.7,57,0.00,,,0.00,WUHU216CR1000,2013-05-23 15:42:00,
2013-05-23 08:47:00,54.9,39.0,0.00,NNW,348,5.4,11.7,55,0.00,,,0.00,WUHU216CR1000,2013-05-23 15:47:00,
2013-05-23 08:52:00,54.9,39.0,0.00,NNW,348,5.4,9.9,55,0.00,,,0.00,WUHU216CR1000,2013-05-23 15:52:00,
2013-05-23 08:57:00,54.9,39.0,0.00,NNW,348,5.4,9.9,55,0.00,,,0.00,WUHU216CR1000,2013-05-23 15:57:00,
2013-05-23 09:02:00,55.8,38.9,0.00,North,1,5.8,11.7,53,0.00,,,0.00,WUHU216CR1000,2013-05-23 16:02:00,
2013-05-23 09:07:00,55.8,38.9,0.00,North,1,5.8,11.7,53,0.00,,,0.00,WUHU216CR1000,2013-05-23 16:07:00,
2013-05-23 09:12:00,55.8,38.9,0.00,North,1,5.8,11.7,53,0.00,,,0.00,WUHU216CR1000,2013-05-23 16:12:00,
2013-05-23 09:17:00,56.6,38.9,0.00,North,358,6.2,11.7,51,0.00,,,0.00,WUHU216CR1000,2013-05-23 16:17:00,
2013-05-23 09:22:00,56.6,38.9,0.00,North,358,6.2,11.7,51,0.00,,,0.00,WUHU216CR1000,2013-05-23 16:22:00,
2013-05-23 09:27:00,56.6,38.9,0.00,North,358,6.2,11.7,51,0.00,,,0.00,WUHU216CR1000,2013-05-23 16:27:00,
2013-05-23 09:32:00,58.0,39.0,0.00,North,3,5.9,11.7,49,0.00,,,0.00,WUHU216CR1000,2013-05-23 16:32:00,
2013-05-23 09:37:00,58.0,39.0,0.00,North,3,5.9,11.7,49,0.00,,,0.00,WUHU216CR1000,2013-05-23 16:37:00,
2013-05-23 09:42:00,58.0,39.0,0.00,North,3,5.9,11.7,49,0.00,,,0.00,WUHU216CR1000,2013-05-23 16:42:00,
2013-05-23 09:47:00,59.0,38.9,0.00,North,356,4.4,11.7,47,0.00,,,0.00,WUHU216CR1000,2013-05-23 16:47:00,
2013-05-23 09:52:00,59.0,38.9,0.00,North,356,4.4,9.9,47,0.00,,,0.00,WUHU216CR1000,2013-05-23 16:52:00,
2013-05-23 09:57:00,59.0,38.9,0.00,North,356,4.4,9.9,47,0.00,,,0.00,WUHU216CR1000,2013-05-23 16:57:00,
2013-05-23 10:02:00,59.7,38.7,0.00,WSW,252,4.1,9.9,46,0.00,,,0.00,WUHU216CR1000,2013-05-23 17:02:00,
2013-05-23 10:07:00,59.7,38.7,0.00,WSW,252,4.1,9.9,46,0.00,,,0.00,WUHU216CR1000,2013-05-23 17:07:00,
2013-05-23 10:12:00,59.7,38.7,0.00,WSW,252,4.1,9.9,46,0.00,,,0.00,WUHU216CR1000,2013-05-23 17:12:00,
2013-05-23 10:17:00,60.1,38.6,0.00,WNW,296,2.9,9.9,45,0.00,,,0.00,WUHU216CR1000,2013-05-23 17:17:00,
2013-05-23 10:22:00,60.1,38.6,0.00,WNW,296,2.9,8.2,45,0.00,,,0.00,WUHU216CR1000,2013-05-23 17:22:00,
2013-05-23 10:27:00,60.1,38.6,0.00,WNW,296,2.9,8.2,45,0.00,,,0.00,WUHU216CR1000,2013-05-23 17:27:00,
2013-05-23 10:32:00,61.6,38.8,0.00,SSW,209,2.8,8.2,43,0.00,,,0.00,WUHU216CR1000,2013-05-23 17:32:00,
2013-05-23 10:37:00,61.6,38.8,0.00,SSW,209,2.8,6.4,43,0.00,,,0.00,WUHU216CR1000,2013-05-23 17:37:00,
2013-05-23 10:42:00,61.6,38.8,0.00,SSW,209,2.8,6.4,43,0.00,,,0.00,WUHU216CR1000,2013-05-23 17:42:00,
2013-05-23 10:47:00,62.5,38.7,0.00,WNW,295,2.6,8.2,41,0.00,,,0.00,WUHU216CR1000,2013-05-23 17:47:00,
2013-05-23 10:52:00,62.5,38.7,0.00,WNW,295,2.6,8.2,41,0.00,,,0.00,WUHU216CR1000,2013-05-23 17:52:00,
2013-05-23 10:57:00,62.5,38.7,0.00,WNW,295,2.6,8.2,41,0.00,,,0.00,WUHU216CR1000,2013-05-23 17:57:00,
2013-05-23 11:02:00,62.8,38.5,0.00,WSW,246,3.5,8.2,41,0.00,,,0.00,WUHU216CR1000,2013-05-23 18:02:00,
2013-05-23 11:07:00,62.8,38.5,0.00,WSW,246,3.5,8.2,41,0.00,,,0.00,WUHU216CR1000,2013-05-23 18:07:00,
2013-05-23 11:12:00,62.8,38.5,0.00,WSW,246,3.5,8.2,41,0.00,,,0.00,WUHU216CR1000,2013-05-23 18:12:00,
2013-05-23 11:17:00,63.9,38.3,0.00,SSE,150,2.9,8.2,39,0.00,,,0.00,WUHU216CR1000,2013-05-23 18:17:00,
2013-05-23 11:22:00,63.9,38.3,0.00,SSE,150,2.9,6.4,39,0.00,,,0.00,WUHU216CR1000,2013-05-23 18:22:00,
2013-05-23 11:27:00,63.9,38.3,0.00,SSE,150,2.9,6.4,39,0.00,,,0.00,WUHU216CR1000,2013-05-23 18:27:00,
2013-05-23 11:32:00,65.8,38.6,0.00,NE,41,4.6,9.9,37,0.00,,,0.00,WUHU216CR1000,2013-05-23 18:32:00,
2013-05-23 11:37:00,65.8,38.6,0.00,NE,41,4.6,9.9,37,0.00,,,0.00,WUHU216CR1000,2013-05-23 18:37:00,
2013-05-23 11:42:00,65.8,38.6,0.00,NE,41,4.6,9.9,37,0.00,,,0.00,WUHU216CR1000,2013-05-23 18:42:00,
2013-05-23 11:47:00,67.2,38.9,0.00,West,270,3.7,11.7,35,0.00,,,0.00,WUHU216CR1000,2013-05-23 18:47:00,
2013-05-23 11:52:00,67.2,38.9,0.00,West,270,3.7,11.7,35,0.00,,,0.00,WUHU216CR1000,2013-05-23 18:52:00,
2013-05-23 11:57:00,67.2,38.9,0.00,West,270,3.7,11.7,35,0.00,,,0.00,WUHU216CR1000,2013-05-23 18:57:00,
2013-05-23 12:02:00,67.7,39.0,0.00,SSW,199,4.7,11.7,35,0.00,,,0.00,WUHU216CR1000,2013-05-23 19:02:00,
2013-05-23 12:07:00,67.7,39.0,0.00,SSW,199,4.7,11.7,35,0.00,,,0.00,WUHU216CR1000,2013-05-23 19:07:00,
2013-05-23 12:12:00,67.7,39.0,0.00,SSW,199,4.7,11.7,35,0.00,,,0.00,WUHU216CR1000,2013-05-23 19:12:00,
2013-05-23 12:17:00,67.5,39.0,0.00,WSW,239,6.8,15.3,35,0.00,,,0.00,WUHU216CR1000,2013-05-23 19:17:00,
2013-05-23 12:22:00,67.5,39.0,0.00,WSW,239,6.8,15.3,35,0.00,,,0.00,WUHU216CR1000,2013-05-23 19:22:00,
2013-05-23 12:27:00,67.5,39.0,0.00,WSW,239,6.8,15.3,35,0.00,,,0.00,WUHU216CR1000,2013-05-23 19:27:00,
2013-05-23 12:32:00,68.5,38.9,0.00,SW,217,6.6,15.3,34,0.00,,,0.00,WUHU216CR1000,2013-05-23 19:32:00,
2013-05-23 12:37:00,68.5,38.9,0.00,SW,217,6.6,13.5,34,0.00,,,0.00,WUHU216CR1000,2013-05-23 19:37:00,
2013-05-23 12:42:00,68.5,38.9,0.00,SW,217,6.6,13.5,34,0.00,,,0.00,WUHU216CR1000,2013-05-23 19:42:00,
2013-05-23 12:47:00,68.9,39.2,0.00,SSW,213,6.1,13.5,34,0.00,,,0.00,WUHU216CR1000,2013-05-23 19:47:00,
2013-05-23 12:52:00,68.9,39.2,0.00,SSW,213,6.1,11.7,34,0.00,,,0.00,WUHU216CR1000,2013-05-23 19:52:00,
2013-05-23 12:57:00,68.9,39.2,0.00,SSW,213,6.1,11.7,34,0.00,,,0.00,WUHU216CR1000,2013-05-23 19:57:00,
2013-05-23 13:02:00,69.1,39.2,0.00,SW,222,6.3,11.7,34,0.00,,,0.00,WUHU216CR1000,2013-05-23 20:02:00,
2013-05-23 13:07:00,69.1,39.2,0.00,SW,222,6.3,11.7,34,0.00,,,0.00,WUHU216CR1000,2013-05-23 20:07:00,
2013-05-23 13:12:00,69.1,39.2,0.00,SW,222,6.3,11.7,34,0.00,,,0.00,WUHU216CR1000,2013-05-23 20:12:00,
2013-05-23 13:17:00,69.4,39.7,0.00,SW,220,6.7,11.7,34,0.00,,,0.00,WUHU216CR1000,2013-05-23 20:17:00,
2013-05-23 13:22:00,69.4,39.7,0.00,SW,220,6.7,11.7,34,0.00,,,0.00,WUHU216CR1000,2013-05-23 20:22:00,
2013-05-23 13:27:00,69.4,39.7,0.00,SW,220,6.7,11.7,34,0.00,,,0.00,WUHU216CR1000,2013-05-23 20:27:00,
2013-05-23 13:32:00,68.9,40.5,0.00,WSW,242,8.5,15.3,35,0.00,,,0.00,WUHU216CR1000,2013-05-23 20:32:00,
2013-05-23 13:37:00,68.9,40.5,0.00,WSW,242,8.5,15.3,35,0.00,,,0.00,WUHU216CR1000,2013-05-23 20:37:00,
2013-05-23 13:42:00,68.9,40.5,0.00,WSW,242,8.5,15.3,35,0.00,,,0.00,WUHU216CR1000,2013-05-23 20:42:00,
2013-05-23 13:47:00,69.1,40.6,0.00,WSW,238,8.1,15.3,35,0.00,,,0.00,WUHU216CR1000,2013-05-23 20:47:00,
2013-05-23 13:52:00,69.1,40.6,0.00,WSW,238,8.1,15.3,35,0.00,,,0.00,WUHU216CR1000,2013-05-23 20:52:00,
2013-05-23 13:57:00,69.1,40.6,0.00,WSW,238,8.1,15.3,35,0.00,,,0.00,WUHU216CR1000,2013-05-23 20:57:00,
2013-05-23 14:02:00,69.7,40.8,0.00,WSW,239,8.4,15.3,35,0.00,,,0.00,WUHU216CR1000,2013-05-23 21:02:00,
2013-05-23 14:07:00,69.7,40.8,0.00,WSW,239,8.4,15.3,35,0.00,,,0.00,WUHU216CR1000,2013-05-23 21:07:00,
2013-05-23 14:12:00,69.7,40.8,0.00,WSW,239,8.4,15.3,35,0.00,,,0.00,WUHU216CR1000,2013-05-23 21:12:00,
2013-05-23 14:17:00,69.8,41.1,0.00,WSW,238,8.7,17.1,35,0.00,,,0.00,WUHU216CR1000,2013-05-23 21:17:00,
2013-05-23 14:22:00,69.8,41.1,0.00,WSW,238,8.7,17.1,35,0.00,,,0.00,WUHU216CR1000,2013-05-23 21:22:00,
2013-05-23 14:27:00,69.8,41.1,0.00,WSW,238,8.7,17.1,35,0.00,,,0.00,WUHU216CR1000,2013-05-23 21:27:00,
2013-05-23 14:32:00,69.7,41.3,0.00,SW,236,8.6,17.1,36,0.00,,,0.00,WUHU216CR1000,2013-05-23 21:32:00,
2013-05-23 14:37:00,69.7,41.3,0.00,SW,236,8.6,17.1,36,0.00,,,0.00,WUHU216CR1000,2013-05-23 21:37:00,
2013-05-23 14:42:00,69.7,41.3,0.00,SW,236,8.6,17.1,36,0.00,,,0.00,WUHU216CR1000,2013-05-23 21:42:00,
2013-05-23 14:47:00,69.7,41.3,0.00,SW,236,8.6,17.1,36,0.00,,,0.00,WUHU216CR1000,2013-05-23 21:47:00,
2013-05-23 14:52:00,69.7,41.3,0.00,SW,236,8.6,17.1,36,0.00,,,0.00,WUHU216CR1000,2013-05-23 21:52:00,
2013-05-23 14:57:00,69.1,41.3,0.00,WSW,246,10.3,18.9,36,0.00,,,0.00,WUHU216CR1000,2013-05-23 21:57:00,
2013-05-23 15:02:00,68.8,41.7,0.00,WSW,239,10.6,18.9,37,0.00,,,0.00,WUHU216CR1000,2013-05-23 22:02:00,
2013-05-23 15:07:00,68.8,41.7,0.00,WSW,239,10.6,18.9,37,0.00,,,0.00,WUHU216CR1000,2013-05-23 22:07:00,
2013-05-23 15:12:00,68.8,41.7,0.00,WSW,239,10.6,18.9,37,0.00,,,0.00,WUHU216CR1000,2013-05-23 22:12:00,
2013-05-23 15:17:00,69.0,41.7,0.00,WSW,245,10.9,18.9,37,0.00,,,0.00,WUHU216CR1000,2013-05-23 22:17:00,
2013-05-23 15:22:00,69.0,41.7,0.00,WSW,245,10.9,18.9,37,0.00,,,0.00,WUHU216CR1000,2013-05-23 22:22:00,
2013-05-23 15:27:00,69.0,41.7,0.00,WSW,245,10.9,18.9,37,0.00,,,0.00,WUHU216CR1000,2013-05-23 22:27:00,
2013-05-23 15:32:00,69.1,41.4,0.00,WSW,251,10.6,18.9,37,0.00,,,0.00,WUHU216CR1000,2013-05-23 22:32:00,
2013-05-23 15:38:00,69.1,41.4,0.00,WSW,251,10.6,18.9,37,0.00,,,0.00,WUHU216CR1000,2013-05-23 22:38:00,
2013-05-23 15:43:00,69.1,41.4,0.00,WSW,251,10.6,18.9,37,0.00,,,0.00,WUHU216CR1000,2013-05-23 22:43:00,
2013-05-23 15:48:00,68.3,41.5,0.00,WSW,245,10.9,20.7,38,0.00,,,0.00,WUHU216CR1000,2013-05-23 22:48:00,
2013-05-23 15:53:00,68.3,41.5,0.00,WSW,245,10.9,20.7,38,0.00,,,0.00,WUHU216CR1000,2013-05-23 22:53:00,
2013-05-23 15:58:00,68.3,41.5,0.00,WSW,245,10.9,20.7,38,0.00,,,0.00,WUHU216CR1000,2013-05-23 22:58:00,
2013-05-23 16:03:00,67.9,40.8,0.00,WSW,252,10.1,20.7,37,0.00,,,0.00,WUHU216CR1000,2013-05-23 23:03:00,
2013-05-23 16:08:00,67.9,40.8,0.00,WSW,252,10.1,18.9,37,0.00,,,0.00,WUHU216CR1000,2013-05-23 23:08:00,
2013-05-23 16:13:00,67.9,40.8,0.00,WSW,252,10.1,18.9,37,0.00,,,0.00,WUHU216CR1000,2013-05-23 23:13:00,
2013-05-23 16:18:00,68.7,39.9,0.00,WSW,253,8.4,18.9,35,0.00,,,0.00,WUHU216CR1000,2013-05-23 23:18:00,
2013-05-23 16:23:00,68.7,39.9,0.00,WSW,253,8.4,15.3,35,0.00,,,0.00,WUHU216CR1000,2013-05-23 23:23:00,
2013-05-23 16:28:00,68.7,39.9,0.00,WSW,253,8.4,15.3,35,0.00,,,0.00,WUHU216CR1000,2013-05-23 23:28:00,
2013-05-23 16:33:00,69.2,38.9,0.00,WSW,254,8.1,17.1,33,0.00,,,0.00,WUHU216CR1000,2013-05-23 23:33:00,
2013-05-23 16:38:00,69.2,38.9,0.00,WSW,254,8.1,17.1,33,0.00,,,0.00,WUHU216CR1000,2013-05-23 23:38:00,
2013-05-23 16:43:00,69.2,38.9,0.00,WSW,254,8.1,17.1,33,0.00,,,0.00,WUHU216CR1000,2013-05-23 23:43:00,
2013-05-23 16:48:00,69.5,39.0,0.00,West,259,7.5,17.1,33,0.00,,,0.00,WUHU216CR1000,2013-05-23 23:48:00,
2013-05-23 16:53:00,69.5,39.0,0.00,West,259,7.5,15.3,33,0.00,,,0.00,WUHU216CR1000,2013-05-23 23:53:00,
2013-05-23 16:58:00,69.5,39.0,0.00,West,259,7.5,15.3,33,0.00,,,0.00,WUHU216CR1000,2013-05-23 23:58:00,
2013-05-23 17:03:00,70.3,39.1,0.00,WSW,252,7.1,15.3,32,0.00,,,0.00,WUHU216CR1000,2013-05-24 00:03:00,
2013-05-23 17:08:00,70.3,39.1,0.00,WSW,252,7.1,15.3,32,0.00,,,0.00,WUHU216CR1000,2013-05-24 00:08:00,
2013-05-23 17:13:00,70.3,39.1,0.00,WSW,252,7.1,15.3,32,0.00,,,0.00,WUHU216CR1000,2013-05-24 00:13:00,
2013-05-23 17:18:00,69.9,38.7,0.00,WSW,254,7.6,15.3,32,0.00,,,0.00,WUHU216CR1000,2013-05-24 00:18:00,
2013-05-23 17:23:00,69.9,38.7,0.00,WSW,254,7.6,15.3,32,0.00,,,0.00,WUHU216CR1000,2013-05-24 00:23:00,
2013-05-23 17:28:00,69.9,38.7,0.00,WSW,254,7.6,15.3,32,0.00,,,0.00,WUHU216CR1000,2013-05-24 00:28:00,
2013-05-23 17:33:00,70.4,38.4,0.00,WSW,254,7.0,15.3,31,0.00,,,0.00,WUHU216CR1000,2013-05-24 00:33:00,
2013-05-23 17:38:00,70.4,38.4,0.00,WSW,254,7.0,13.5,31,0.00,,,0.00,WUHU216CR1000,2013-05-24 00:38:00,
2013-05-23 17:43:00,70.4,38.4,0.00,WSW,254,7.0,13.5,31,0.00,,,0.00,WUHU216CR1000,2013-05-24 00:43:00,
2013-05-23 17:48:00,69.6,38.0,0.00,WSW,242,8.5,15.3,32,0.00,,,0.00,WUHU216CR1000,2013-05-24 00:48:00,
2013-05-23 17:53:00,69.6,38.0,0.00,WSW,242,8.5,15.3,32,0.00,,,0.00,WUHU216CR1000,2013-05-24 00:53:00,
2013-05-23 17:58:00,69.6,38.0,0.00,WSW,242,8.5,15.3,32,0.00,,,0.00,WUHU216CR1000,2013-05-24 00:58:00,
2013-05-23 18:03:00,69.2,37.9,0.00,WSW,247,7.8,15.3,32,0.00,,,0.00,WUHU216CR1000,2013-05-24 01:03:00,
2013-05-23 18:08:00,69.2,37.9,0.00,WSW,247,7.8,13.5,32,0.00,,,0.00,WUHU216CR1000,2013-05-24 01:08:00,
2013-05-23 18:13:00,69.2,37.9,0.00,WSW,247,7.8,13.5,32,0.00,,,0.00,WUHU216CR1000,2013-05-24 01:13:00,
2013-05-23 18:18:00,68.6,37.3,0.00,WSW,244,9.4,15.3,32,0.00,,,0.00,WUHU216CR1000,2013-05-24 01:18:00,
2013-05-23 18:23:00,68.6,37.3,0.00,WSW,244,9.4,15.3,32,0.00,,,0.00,WUHU216CR1000,2013-05-24 01:23:00,
2013-05-23 18:28:00,68.6,37.3,0.00,WSW,244,9.4,15.3,32,0.00,,,0.00,WUHU216CR1000,2013-05-24 01:28:00,
2013-05-23 18:33:00,67.5,35.9,0.00,WSW,244,9.7,17.1,31,0.00,,,0.00,WUHU216CR1000,2013-05-24 01:33:00,
2013-05-23 18:38:00,67.5,35.9,0.00,WSW,244,9.7,17.1,31,0.00,,,0.00,WUHU216CR1000,2013-05-24 01:38:00,
2013-05-23 18:43:00,67.5,35.9,0.00,WSW,244,9.7,17.1,31,0.00,,,0.00,WUHU216CR1000,2013-05-24 01:43:00,
2013-05-23 18:48:00,66.5,34.4,0.00,WSW,242,9.5,17.1,30,0.00,,,0.00,WUHU216CR1000,2013-05-24 01:48:00,
2013-05-23 18:53:00,66.5,34.4,0.00,WSW,242,9.5,15.3,30,0.00,,,0.00,WUHU216CR1000,2013-05-24 01:53:00,
2013-05-23 18:58:00,66.5,34.4,0.00,WSW,242,9.5,15.3,30,0.00,,,0.00,WUHU216CR1000,2013-05-24 01:58:00,
2013-05-23 19:03:00,65.5,36.7,0.00,WSW,243,9.4,15.3,35,0.00,,,0.00,WUHU216CR1000,2013-05-24 02:03:00,
2013-05-23 19:08:00,65.5,36.7,0.00,WSW,243,9.4,15.3,35,0.00,,,0.00,WUHU216CR1000,2013-05-24 02:08:00,
2013-05-23 19:13:00,65.5,36.7,0.00,WSW,243,9.4,15.3,35,0.00,,,0.00,WUHU216CR1000,2013-05-24 02:13:00,
2013-05-23 19:18:00,64.9,37.4,0.00,WSW,258,6.2,15.3,36,0.00,,,0.00,WUHU216CR1000,2013-05-24 02:18:00,
2013-05-23 19:23:00,64.9,37.4,0.00,WSW,258,6.2,13.5,36,0.00,,,0.00,WUHU216CR1000,2013-05-24 02:23:00,
2013-05-23 19:28:00,64.9,37.4,0.00,WSW,258,6.2,13.5,36,0.00,,,0.00,WUHU216CR1000,2013-05-24 02:28:00,
2013-05-23 19:33:00,64.3,37.2,0.00,WSW,256,5.3,13.5,37,0.00,,,0.00,WUHU216CR1000,2013-05-24 02:33:00,
2013-05-23 19:38:00,64.3,37.2,0.00,WSW,256,5.3,9.9,37,0.00,,,0.00,WUHU216CR1000,2013-05-24 02:38:00,
2013-05-23 19:43:00,64.3,37.2,0.00,WSW,256,5.3,9.9,37,0.00,,,0.00,WUHU216CR1000,2013-05-24 02:43:00,
2013-05-23 19:48:00,62.4,41.2,0.00,WSW,257,5.6,13.5,46,0.00,,,0.00,WUHU216CR1000,2013-05-24 02:48:00,
2013-05-23 19:53:00,62.4,41.2,0.00,WSW,257,5.6,13.5,46,0.00,,,0.00,WUHU216CR1000,2013-05-24 02:53:00,
2013-05-23 19:58:00,62.4,41.2,0.00,WSW,257,5.6,13.5,46,0.00,,,0.00,WUHU216CR1000,2013-05-24 02:58:00,
2013-05-23 20:03:00,60.3,42.5,0.00,West,269,5.5,13.5,52,0.00,,,0.00,WUHU216CR1000,2013-05-24 03:03:00,
2013-05-23 20:08:00,60.3,42.5,0.00,West,269,5.5,13.5,52,0.00,,,0.00,WUHU216CR1000,2013-05-24 03:08:00,
2013-05-23 20:13:00,60.3,42.5,0.00,West,269,5.5,13.5,52,0.00,,,0.00,WUHU216CR1000,2013-05-24 03:13:00,
2013-05-23 20:18:00,59.3,42.5,0.00,WNW,283,5.1,13.5,54,0.00,,,0.00,WUHU216CR1000,2013-05-24 03:18:00,
2013-05-23 20:23:00,59.3,42.5,0.00,WNW,283,5.1,11.7,54,0.00,,,0.00,WUHU216CR1000,2013-05-24 03:23:00,
2013-05-23 20:28:00,59.3,42.5,0.00,WNW,283,5.1,11.7,54,0.00,,,0.00,WUHU216CR1000,2013-05-24 03:28:00,
2013-05-23 20:33:00,58.8,42.0,0.00,WSW,257,4.0,11.7,53,0.00,,,0.00,WUHU216CR1000,2013-05-24 03:33:00,
2013-05-23 20:38:00,58.8,42.0,0.00,WSW,257,4.0,11.7,53,0.00,,,0.00,WUHU216CR1000,2013-05-24 03:38:00,
2013-05-23 20:43:00,58.8,42.0,0.00,WSW,257,4.0,11.7,53,0.00,,,0.00,WUHU216CR1000,2013-05-24 03:43:00,
2013-05-23 20:48:00,58.5,41.3,0.00,WNW,303,1.9,11.7,53,0.00,,,0.00,WUHU216CR1000,2013-05-24 03:48:00,
2013-05-23 20:53:00,58.5,41.3,0.00,WNW,303,1.9,4.6,53,0.00,,,0.00,WUHU216CR1000,2013-05-24 03:53:00,
2013-05-23 20:58:00,58.5,41.3,0.00,WNW,303,1.9,4.6,53,0.00,,,0.00,WUHU216CR1000,2013-05-24 03:58:00,
2013-05-23 21:01:00,58.5,41.3,0.00,WNW,303,1.9,4.6,53,0.00,,,0.00,WUHU216CR1000,2013-05-24 04:01:00,
2013-05-23 21:06:00,56.7,41.7,0.00,SSE,152,2.0,4.6,57,0.00,,,0.00,WUHU216CR1000,2013-05-24 04:06:00,
2013-05-23 21:11:00,56.7,41.7,0.00,SSE,152,2.0,4.6,57,0.00,,,0.00,WUHU216CR1000,2013-05-24 04:11:00,
2013-05-23 21:16:00,54.9,41.3,0.00,WNW,287,1.5,4.6,60,0.00,,,0.00,WUHU216CR1000,2013-05-24 04:16:00,
2013-05-23 21:21:00,54.9,41.3,0.00,WNW,287,1.5,4.6,60,0.00,,,0.00,WUHU216CR1000,2013-05-24 04:21:00,
2013-05-23 21:26:00,54.9,41.3,0.00,WNW,287,1.5,4.6,60,0.00,,,0.00,WUHU216CR1000,2013-05-24 04:26:00,
2013-05-23 21:31:00,54.1,40.9,0.00,West,272,1.6,4.6,61,0.00,,,0.00,WUHU216CR1000,2013-05-24 04:31:00,
2013-05-23 21:36:00,54.1,40.9,0.00,West,272,1.6,4.6,61,0.00,,,0.00,WUHU216CR1000,2013-05-24 04:36:00,
2013-05-23 21:41:00,54.1,40.9,0.00,West,272,1.6,4.6,61,0.00,,,0.00,WUHU216CR1000,2013-05-24 04:41:00,
2013-05-23 21:46:00,54.0,40.9,0.00,WNW,292,2.4,4.6,61,0.00,,,0.00,WUHU216CR1000,2013-05-24 04:46:00,
2013-05-23 21:51:00,54.0,40.9,0.00,WNW,292,2.4,4.6,61,0.00,,,0.00,WUHU216CR1000,2013-05-24 04:51:00,
2013-05-23 21:56:00,54.0,40.9,0.00,WNW,292,2.4,4.6,61,0.00,,,0.00,WUHU216CR1000,2013-05-24 04:56:00,
2013-05-23 22:01:00,55.3,41.1,0.00,NW,314,3.1,8.2,59,0.00,,,0.00,WUHU216CR1000,2013-05-24 05:01:00,
2013-05-23 22:06:00,55.3,41.1,0.00,NW,314,3.1,8.2,59,0.00,,,0.00,WUHU216CR1000,2013-05-24 05:06:00,
2013-05-23 22:11:00,55.3,41.1,0.00,NW,314,3.1,8.2,59,0.00,,,0.00,WUHU216CR1000,2013-05-24 05:11:00,
2013-05-23 22:16:00,56.3,40.4,0.00,West,267,1.8,8.2,55,0.00,,,0.00,WUHU216CR1000,2013-05-24 05:16:00,
2013-05-23 22:21:00,56.3,40.4,0.00,West,267,1.8,6.4,55,0.00,,,0.00,WUHU216CR1000,2013-05-24 05:21:00,
2013-05-23 22:26:00,56.3,40.4,0.00,West,267,1.8,6.4,55,0.00,,,0.00,WUHU216CR1000,2013-05-24 05:26:00,
2013-05-23 22:31:00,56.3,40.0,0.00,SSW,203,1.9,6.4,54,0.00,,,0.00,WUHU216CR1000,2013-05-24 05:31:00,
2013-05-23 22:36:00,56.3,40.0,0.00,SSW,203,1.9,6.4,54,0.00,,,0.00,WUHU216CR1000,2013-05-24 05:36:00,
2013-05-23 22:41:00,56.3,40.0,0.00,SSW,203,1.9,6.4,54,0.00,,,0.00,WUHU216CR1000,2013-05-24 05:41:00,
2013-05-23 22:46:00,53.7,40.3,0.00,South,184,1.7,6.4,60,0.00,,,0.00,WUHU216CR1000,2013-05-24 05:46:00,
2013-05-23 22:51:00,53.7,40.3,0.00,South,184,1.7,4.6,60,0.00,,,0.00,WUHU216CR1000,2013-05-24 05:51:00,
2013-05-23 22:56:00,53.7,40.3,0.00,South,184,1.7,4.6,60,0.00,,,0.00,WUHU216CR1000,2013-05-24 05:56:00,
2013-05-23 23:01:00,51.5,40.0,0.00,SW,229,0.9,4.6,65,0.00,,,0.00,WUHU216CR1000,2013-05-24 06:01:00,
2013-05-23 23:06:00,51.5,40.0,0.00,SW,229,0.9,4.6,65,0.00,,,0.00,WUHU216CR1000,2013-05-24 06:06:00,
2013-05-23 23:11:00,51.5,40.0,0.00,SW,229,0.9,4.6,65,0.00,,,0.00,WUHU216CR1000,2013-05-24 06:11:00,
2013-05-23 23:16:00,50.5,40.2,0.00,SSE,149,1.6,4.6,68,0.00,,,0.00,WUHU216CR1000,2013-05-24 06:16:00,
2013-05-23 23:21:00,50.5,40.2,0.00,SSE,149,1.6,4.6,68,0.00,,,0.00,WUHU216CR1000,2013-05-24 06:21:00,
2013-05-23 23:26:00,50.5,40.2,0.00,SSE,149,1.6,4.6,68,0.00,,,0.00,WUHU216CR1000,2013-05-24 06:26:00,
2013-05-23 23:31:00,49.5,39.8,0.00,NNW,331,0.6,4.6,69,0.00,,,0.00,WUHU216CR1000,2013-05-24 06:31:00,
2013-05-23 23:36:00,49.5,39.8,0.00,NNW,331,0.6,2.8,69,0.00,,,0.00,WUHU216CR1000,2013-05-24 06:36:00,
2013-05-23 23:41:00,49.5,39.8,0.00,NNW,331,0.6,2.8,69,0.00,,,0.00,WUHU216CR1000,2013-05-24 06:41:00,
2013-05-23 23:46:00,48.8,39.7,0.00,WNW,285,0.8,4.6,71,0.00,,,0.00,WUHU216CR1000,2013-05-24 06:46:00,
2013-05-23 23:51:00,48.8,39.7,0.00,WNW,285,0.8,4.6,71,0.00,,,0.00,WUHU216CR1000,2013-05-24 06:51:00,
2013-05-23 23:56:00,48.8,39.7,0.00,WNW,285,0.8,4.6,71,0.00,,,0.00,WUHU216CR1000,2013-05-24 06:56:00,